createdAt,value
2023-04-08T00:00:13.650Z,15.30
2023-04-08T00:01:13.641Z,15.60
2023-04-08T00:02:13.742Z,15.00
2023-04-08T00:03:13.920Z,15.30
2023-04-08T00:04:13.796Z,15.10
2023-04-08T00:05:13.585Z,15.50
2023-04-08T00:06:13.597Z,15.10
2023-04-08T00:07:13.718Z,15.00
2023-04-08T00:08:13.609Z,14.50
2023-04-08T00:09:13.572Z,14.80
2023-04-08T00:10:13.531Z,14.50
2023-04-08T00:11:13.535Z,14.90
2023-04-08T00:12:13.536Z,15.20
2023-04-08T00:13:13.513Z,14.70
2023-04-08T00:14:13.530Z,15.10
2023-04-08T00:15:13.517Z,14.70
2023-04-08T00:16:13.508Z,14.50
2023-04-08T00:17:13.510Z,14.60
2023-04-08T00:18:13.467Z,14.20
2023-04-08T00:19:13.451Z,14.40
2023-04-08T00:20:13.477Z,14.00
2023-04-08T00:21:13.437Z,14.20
2023-04-08T00:22:13.418Z,13.50
2023-04-08T00:23:13.429Z,14.40
2023-04-08T00:24:13.399Z,13.90
2023-04-08T00:25:13.407Z,14.50
2023-04-08T00:26:13.378Z,14.30
2023-04-08T00:27:13.356Z,14.00
2023-04-08T00:28:13.395Z,14.40
2023-04-08T00:29:13.339Z,14.10
2023-04-08T00:30:13.341Z,13.90
2023-04-08T00:31:13.356Z,14.20
2023-04-08T00:32:13.327Z,13.90
2023-04-08T00:33:13.371Z,13.80
2023-04-08T00:34:13.257Z,14.00
2023-04-08T00:35:13.305Z,13.80
2023-04-08T00:36:13.263Z,13.60
2023-04-08T00:37:13.233Z,13.50
2023-04-08T00:38:13.217Z,13.60
2023-04-08T00:39:13.209Z,13.90
2023-04-08T00:40:13.203Z,13.60
2023-04-08T00:41:13.286Z,13.80
2023-04-08T00:42:13.156Z,12.80
2023-04-08T00:43:13.158Z,13.40
2023-04-08T00:44:13.177Z,14.10
2023-04-08T00:45:13.158Z,13.90
2023-04-08T00:46:13.154Z,12.90
2023-04-08T00:47:13.159Z,13.50
2023-04-08T00:48:13.107Z,13.90
2023-04-08T00:49:13.107Z,13.30
2023-04-08T00:50:13.092Z,13.10
2023-04-08T00:51:13.162Z,13.90
2023-04-08T00:52:13.068Z,13.40
2023-04-08T00:53:13.078Z,12.90
2023-04-08T00:54:13.066Z,13.40
2023-04-08T00:55:13.026Z,13.40
2023-04-08T00:56:13.053Z,13.20
2023-04-08T00:57:12.976Z,13.40
2023-04-08T00:58:12.975Z,12.60
2023-04-08T00:59:12.953Z,13.20
2023-04-08T01:00:12.949Z,13.20
2023-04-08T01:01:12.990Z,14.10
2023-04-08T01:02:13.198Z,13.50
2023-04-08T01:03:13.056Z,13.10
2023-04-08T01:04:12.972Z,13.40
2023-04-08T01:05:12.887Z,13.40
2023-04-08T01:06:12.900Z,13.20
2023-04-08T01:07:12.879Z,13.30
2023-04-08T01:08:12.856Z,14.10
2023-04-08T01:09:12.859Z,13.80
2023-04-08T01:10:12.853Z,13.40
2023-04-08T01:11:12.844Z,14.30
2023-04-08T01:12:12.820Z,13.30
2023-04-08T01:13:12.799Z,13.20
2023-04-08T01:14:12.795Z,13.40
2023-04-08T01:15:12.781Z,13.60
2023-04-08T01:16:12.881Z,12.40
2023-04-08T01:17:12.757Z,12.50
2023-04-08T01:18:12.778Z,13.80
2023-04-08T01:19:12.726Z,13.00
2023-04-08T01:20:12.726Z,13.00
2023-04-08T01:21:12.751Z,12.80
2023-04-08T01:22:12.702Z,12.60
2023-04-08T01:23:12.680Z,13.40
2023-04-08T01:24:12.683Z,12.60
2023-04-08T01:25:12.672Z,12.90
2023-04-08T01:26:12.691Z,13.20
2023-04-08T01:27:12.638Z,13.10
2023-04-08T01:28:12.638Z,13.50
2023-04-08T01:29:12.625Z,12.70
2023-04-08T01:30:12.619Z,13.40
2023-04-08T01:31:12.649Z,13.00
2023-04-08T01:32:12.609Z,13.30
2023-04-08T01:33:12.585Z,12.70
2023-04-08T01:34:12.564Z,12.80
2023-04-08T01:35:12.559Z,12.70
2023-04-08T01:36:12.566Z,12.70
2023-04-08T01:37:12.533Z,12.70
2023-04-08T01:38:12.554Z,12.90
2023-04-08T01:39:12.508Z,12.40
2023-04-08T01:40:12.517Z,12.30
2023-04-08T01:41:12.515Z,12.20
2023-04-08T01:42:12.489Z,12.00
2023-04-08T01:43:12.466Z,12.70
2023-04-08T01:44:12.462Z,13.30
2023-04-08T01:45:12.450Z,12.90
2023-04-08T01:46:12.485Z,12.90
2023-04-08T01:47:12.441Z,12.70
2023-04-08T01:48:12.418Z,12.60
2023-04-08T01:49:12.407Z,12.70
2023-04-08T01:50:12.410Z,12.70
2023-04-08T01:51:12.406Z,13.20
2023-04-08T01:52:12.376Z,12.90
2023-04-08T01:53:12.392Z,13.40
2023-04-08T01:54:12.368Z,12.90
2023-04-08T01:55:12.346Z,12.50
2023-04-08T01:56:12.361Z,11.90
2023-04-08T01:57:12.336Z,11.90
2023-04-08T01:58:12.317Z,12.20
2023-04-08T01:59:12.303Z,12.40
2023-04-08T02:00:12.305Z,12.50
2023-04-08T02:01:12.300Z,12.70
2023-04-08T02:02:12.327Z,12.50
2023-04-08T02:03:12.443Z,13.00
2023-04-08T02:04:12.278Z,13.20
2023-04-08T02:05:12.234Z,11.80
2023-04-08T02:06:12.302Z,13.10
2023-04-08T02:07:12.227Z,13.30
2023-04-08T02:08:12.221Z,14.10
2023-04-08T02:09:12.236Z,13.90
2023-04-08T02:10:12.222Z,12.70
2023-04-08T02:11:12.251Z,12.40
2023-04-08T02:12:12.182Z,13.40
2023-04-08T02:13:12.183Z,12.30
2023-04-08T02:14:12.139Z,11.80
2023-04-08T02:15:12.172Z,12.70
2023-04-08T02:16:12.190Z,11.80
2023-04-08T02:17:12.110Z,11.40
2023-04-08T02:18:12.170Z,12.00
2023-04-08T02:19:12.147Z,11.60
2023-04-08T02:20:12.090Z,12.40
2023-04-08T02:21:12.104Z,13.10
2023-04-08T02:22:12.063Z,13.80
2023-04-08T02:23:12.082Z,12.30
2023-04-08T02:24:12.042Z,13.10
2023-04-08T02:25:12.030Z,12.10
2023-04-08T02:26:12.032Z,11.90
2023-04-08T02:27:12.015Z,12.10
2023-04-08T02:28:11.994Z,12.20
2023-04-08T02:29:11.999Z,12.30
2023-04-08T02:30:11.977Z,12.30
2023-04-08T02:31:12.056Z,11.90
2023-04-08T02:32:11.963Z,12.20
2023-04-08T02:33:12.000Z,11.80
2023-04-08T02:34:11.931Z,11.20
2023-04-08T02:35:11.963Z,11.10
2023-04-08T02:36:11.957Z,11.20
2023-04-08T02:37:11.892Z,10.70
2023-04-08T02:38:11.879Z,11.80
2023-04-08T02:39:11.891Z,11.70
2023-04-08T02:40:11.855Z,12.80
2023-04-08T02:41:11.924Z,12.70
2023-04-08T02:42:12.056Z,11.90
2023-04-08T02:43:11.818Z,12.00
2023-04-08T02:44:11.814Z,11.90
2023-04-08T02:45:11.818Z,11.70
2023-04-08T02:46:11.893Z,12.20
2023-04-08T02:47:11.800Z,11.60
2023-04-08T02:48:11.774Z,11.80
2023-04-08T02:49:11.795Z,11.20
2023-04-08T02:50:11.738Z,11.00
2023-04-08T02:51:11.797Z,11.30
2023-04-08T02:52:11.750Z,11.70
2023-04-08T02:53:11.729Z,11.20
2023-04-08T02:54:11.719Z,11.60
2023-04-08T02:55:11.684Z,10.60
2023-04-08T02:56:11.738Z,11.50
2023-04-08T02:57:11.671Z,12.20
2023-04-08T02:58:11.645Z,11.80
2023-04-08T02:59:11.662Z,11.60
2023-04-08T03:00:11.662Z,11.30
2023-04-08T03:01:11.664Z,12.10
2023-04-08T03:02:11.684Z,12.40
2023-04-08T03:03:11.849Z,12.00
2023-04-08T03:04:11.588Z,12.50
2023-04-08T03:05:11.579Z,11.80
2023-04-08T03:06:11.608Z,11.10
2023-04-08T03:07:11.602Z,11.80
2023-04-08T03:08:11.558Z,11.50
2023-04-08T03:09:11.545Z,12.40
2023-04-08T03:10:12.398Z,12.90
2023-04-08T03:11:11.544Z,12.60
2023-04-08T03:12:11.509Z,11.80
2023-04-08T03:13:11.518Z,12.00
2023-04-08T03:14:11.510Z,12.90
2023-04-08T03:15:11.473Z,12.90
2023-04-08T03:16:11.501Z,13.40
2023-04-08T03:17:11.469Z,12.50
2023-04-08T03:18:11.434Z,12.50
2023-04-08T03:19:11.423Z,11.90
2023-04-08T03:20:11.429Z,11.80
2023-04-08T03:21:11.466Z,12.40
2023-04-08T03:22:11.406Z,11.90
2023-04-08T03:23:11.371Z,12.70
2023-04-08T03:24:11.349Z,11.30
2023-04-08T03:25:11.367Z,11.90
2023-04-08T03:26:11.372Z,12.40
2023-04-08T03:27:11.325Z,12.80
2023-04-08T03:28:11.401Z,13.60
2023-04-08T03:29:11.316Z,12.50
2023-04-08T03:30:11.292Z,12.30
2023-04-08T03:31:11.347Z,12.40
2023-04-08T03:32:11.407Z,12.40
2023-04-08T03:33:11.360Z,13.20
2023-04-08T03:34:11.292Z,13.70
2023-04-08T03:35:11.265Z,13.70
2023-04-08T03:36:11.286Z,12.80
2023-04-08T03:37:11.242Z,12.60
2023-04-08T03:38:11.217Z,13.50
2023-04-08T03:39:11.249Z,13.80
2023-04-08T03:40:11.182Z,13.10
2023-04-08T03:41:11.197Z,11.80
2023-04-08T03:42:11.166Z,12.00
2023-04-08T03:43:11.142Z,12.40
2023-04-08T03:44:11.149Z,12.90
2023-04-08T03:45:11.155Z,12.60
2023-04-08T03:46:11.226Z,12.40
2023-04-08T03:47:11.127Z,12.90
2023-04-08T03:48:11.088Z,12.00
2023-04-08T03:49:11.100Z,12.60
2023-04-08T03:50:11.061Z,12.80
2023-04-08T03:51:11.122Z,12.20
2023-04-08T03:52:11.040Z,13.20
2023-04-08T03:53:11.025Z,12.30
2023-04-08T03:54:11.030Z,11.90
2023-04-08T03:55:11.001Z,12.00
2023-04-08T03:56:11.056Z,12.40
2023-04-08T03:57:11.000Z,12.00
2023-04-08T03:58:11.012Z,11.30
2023-04-08T03:59:10.974Z,12.50
2023-04-08T04:00:10.964Z,12.70
2023-04-08T04:01:10.978Z,12.20
2023-04-08T04:02:10.996Z,12.40
2023-04-08T04:03:11.034Z,12.20
2023-04-08T04:04:11.200Z,11.10
2023-04-08T04:05:10.925Z,12.00
2023-04-08T04:06:10.944Z,11.60
2023-04-08T04:07:10.904Z,11.40
2023-04-08T04:08:10.865Z,11.40
2023-04-08T04:09:10.858Z,11.20
2023-04-08T04:10:10.878Z,11.50
2023-04-08T04:11:10.867Z,11.70
2023-04-08T04:12:10.840Z,12.20
2023-04-08T04:13:10.794Z,12.00
2023-04-08T04:14:10.851Z,12.30
2023-04-08T04:15:10.809Z,11.80
2023-04-08T04:16:10.852Z,12.30
2023-04-08T04:17:10.761Z,12.50
2023-04-08T04:18:10.869Z,12.80
2023-04-08T04:19:10.791Z,12.50
2023-04-08T04:20:10.813Z,12.10
2023-04-08T04:21:10.757Z,12.60
2023-04-08T04:22:10.784Z,12.00
2023-04-08T04:23:10.697Z,12.40
2023-04-08T04:24:10.688Z,12.80
2023-04-08T04:25:10.683Z,12.60
2023-04-08T04:26:10.701Z,12.20
2023-04-08T04:27:10.684Z,12.30
2023-04-08T04:28:10.641Z,13.00
2023-04-08T04:29:10.689Z,11.70
2023-04-08T04:30:10.644Z,12.00
2023-04-08T04:31:10.906Z,12.70
2023-04-08T04:32:10.583Z,12.80
2023-04-08T04:33:10.571Z,12.70
2023-04-08T04:34:10.561Z,12.90
2023-04-08T04:35:10.620Z,12.60
2023-04-08T04:36:10.588Z,11.40
2023-04-08T04:37:10.545Z,11.40
2023-04-08T04:38:10.560Z,12.40
2023-04-08T04:39:10.512Z,12.80
2023-04-08T04:40:10.536Z,12.00
2023-04-08T04:41:10.511Z,11.90
2023-04-08T04:42:10.509Z,11.40
2023-04-08T04:43:10.480Z,11.90
2023-04-08T04:44:10.460Z,11.90
2023-04-08T04:45:10.453Z,11.90
2023-04-08T04:46:10.473Z,12.30
2023-04-08T04:47:10.408Z,11.80
2023-04-08T04:48:10.402Z,11.10
2023-04-08T04:49:10.384Z,11.90
2023-04-08T04:50:10.380Z,12.20
2023-04-08T04:51:10.390Z,11.80
2023-04-08T04:52:10.376Z,12.40
2023-04-08T04:53:10.347Z,12.40
2023-04-08T04:54:10.319Z,11.30
2023-04-08T04:55:10.324Z,10.70
2023-04-08T04:56:10.327Z,10.50
2023-04-08T04:57:10.304Z,11.80
2023-04-08T04:58:10.276Z,11.10
2023-04-08T04:59:10.273Z,11.00
2023-04-08T05:00:10.266Z,10.40
2023-04-08T05:01:10.300Z,10.70
2023-04-08T05:02:10.333Z,10.10
2023-04-08T05:03:10.449Z,10.80
2023-04-08T05:04:10.213Z,10.90
2023-04-08T05:05:10.241Z,10.00
2023-04-08T05:06:10.215Z,10.10
2023-04-08T05:07:10.275Z,10.40
2023-04-08T05:08:10.167Z,9.60
2023-04-08T05:09:10.169Z,10.00
2023-04-08T05:10:10.154Z,9.20
2023-04-08T05:11:10.171Z,9.40
2023-04-08T05:12:10.134Z,9.50
2023-04-08T05:13:10.132Z,9.40
2023-04-08T05:14:10.160Z,9.90
2023-04-08T05:15:10.188Z,9.70
2023-04-08T05:16:10.310Z,10.10
2023-04-08T05:17:10.078Z,9.90
2023-04-08T05:18:10.148Z,10.40
2023-04-08T05:19:10.060Z,10.20
2023-04-08T05:20:10.044Z,10.40
2023-04-08T05:21:10.102Z,9.90
2023-04-08T05:22:10.025Z,10.30
2023-04-08T05:23:10.016Z,10.00
2023-04-08T05:24:10.011Z,9.60
2023-04-08T05:25:09.996Z,9.80
2023-04-08T05:26:10.001Z,9.70
2023-04-08T05:27:10.010Z,9.50
2023-04-08T05:28:09.958Z,9.80
2023-04-08T05:29:09.946Z,10.20
2023-04-08T05:30:09.948Z,10.00
2023-04-08T05:31:09.995Z,10.30
2023-04-08T05:32:09.926Z,10.10
2023-04-08T05:33:09.944Z,10.00
2023-04-08T05:34:09.893Z,9.60
2023-04-08T05:35:09.913Z,9.50
2023-04-08T05:36:09.899Z,9.80
2023-04-08T05:37:09.865Z,9.90
2023-04-08T05:38:09.847Z,10.00
2023-04-08T05:39:09.870Z,9.80
2023-04-08T05:40:09.877Z,9.30
2023-04-08T05:41:09.835Z,10.00
2023-04-08T05:42:09.829Z,9.80
2023-04-08T05:43:09.791Z,9.60
2023-04-08T05:44:09.790Z,9.70
2023-04-08T05:45:09.773Z,9.70
2023-04-08T05:46:09.788Z,10.10
2023-04-08T05:47:09.898Z,9.40
2023-04-08T05:48:09.764Z,9.60
2023-04-08T05:49:09.736Z,10.00
2023-04-08T05:50:09.717Z,9.10
2023-04-08T05:51:09.751Z,9.40
2023-04-08T05:52:09.695Z,9.80
2023-04-08T05:53:09.689Z,9.80
2023-04-08T05:54:09.674Z,9.60
2023-04-08T05:55:09.660Z,9.30
2023-04-08T05:56:09.660Z,9.40
2023-04-08T05:57:10.517Z,9.30
2023-04-08T05:58:09.625Z,9.20
2023-04-08T05:59:09.620Z,9.00
2023-04-08T06:00:09.637Z,9.40
2023-04-08T06:01:09.604Z,9.50
2023-04-08T06:02:09.634Z,10.00
2023-04-08T06:03:09.665Z,8.90
2023-04-08T06:04:09.676Z,8.50
2023-04-08T06:05:09.544Z,8.50
2023-04-08T06:06:09.557Z,9.00
2023-04-08T06:07:09.532Z,9.10
2023-04-08T06:08:09.496Z,9.40
2023-04-08T06:09:09.534Z,8.90
2023-04-08T06:10:09.495Z,9.40
2023-04-08T06:11:09.493Z,9.80
2023-04-08T06:12:09.453Z,9.10
2023-04-08T06:13:09.525Z,9.50
2023-04-08T06:14:09.438Z,9.30
2023-04-08T06:15:09.436Z,9.50
2023-04-08T06:16:09.455Z,9.10
2023-04-08T06:17:09.502Z,9.60
2023-04-08T06:18:09.390Z,9.60
2023-04-08T06:19:09.371Z,10.00
2023-04-08T06:20:09.382Z,10.50
2023-04-08T06:21:09.437Z,9.60
2023-04-08T06:22:09.339Z,9.20
2023-04-08T06:23:09.370Z,9.30
2023-04-08T06:24:09.342Z,9.50
2023-04-08T06:25:09.310Z,10.20
2023-04-08T06:26:09.331Z,9.40
2023-04-08T06:27:09.278Z,9.70
2023-04-08T06:28:09.277Z,10.10
2023-04-08T06:29:09.266Z,9.30
2023-04-08T06:30:09.249Z,9.70
2023-04-08T06:31:09.254Z,9.30
2023-04-08T06:32:09.264Z,9.20
2023-04-08T06:33:09.264Z,9.40
2023-04-08T06:34:09.211Z,9.20
2023-04-08T06:35:09.197Z,9.60
2023-04-08T06:36:09.255Z,9.50
2023-04-08T06:37:09.180Z,9.20
2023-04-08T06:38:09.165Z,9.30
2023-04-08T06:39:09.139Z,9.30
2023-04-08T06:40:09.144Z,9.50
2023-04-08T06:41:09.167Z,9.10
2023-04-08T06:42:09.115Z,9.40
2023-04-08T06:43:09.095Z,9.20
2023-04-08T06:44:09.089Z,9.30
2023-04-08T06:45:09.076Z,9.30
2023-04-08T06:46:09.327Z,9.60
2023-04-08T06:47:09.054Z,8.90
2023-04-08T06:48:09.050Z,9.50
2023-04-08T06:49:09.029Z,9.80
2023-04-08T06:50:09.039Z,9.20
2023-04-08T06:51:09.041Z,9.30
2023-04-08T06:52:09.004Z,9.90
2023-04-08T06:53:08.988Z,9.80
2023-04-08T06:54:08.981Z,9.90
2023-04-08T06:55:08.966Z,10.20
2023-04-08T06:56:08.978Z,9.40
2023-04-08T06:57:08.949Z,9.80
2023-04-08T06:58:08.942Z,9.40
2023-04-08T06:59:09.268Z,9.60
2023-04-08T07:00:08.915Z,8.90
2023-04-08T07:01:08.964Z,9.40
2023-04-08T07:02:08.929Z,9.30
2023-04-08T07:03:08.934Z,9.60
2023-04-08T07:04:08.889Z,9.50
2023-04-08T07:05:08.855Z,9.30
2023-04-08T07:06:08.881Z,9.90
2023-04-08T07:07:08.829Z,10.30
2023-04-08T07:08:08.830Z,9.50
2023-04-08T07:09:08.842Z,9.70
2023-04-08T07:10:10.951Z,9.20
2023-04-08T07:11:08.796Z,10.30
2023-04-08T07:12:08.779Z,10.30
2023-04-08T07:13:08.775Z,10.00
2023-04-08T07:14:08.757Z,9.60
2023-04-08T07:15:08.762Z,10.00
2023-04-08T07:16:08.751Z,9.60
2023-04-08T07:17:08.781Z,9.70
2023-04-08T07:18:08.723Z,10.00
2023-04-08T07:19:08.698Z,10.20
2023-04-08T07:20:08.698Z,9.80
2023-04-08T07:21:08.688Z,9.70
2023-04-08T07:22:08.667Z,10.00
2023-04-08T07:23:08.654Z,10.20
2023-04-08T07:24:08.653Z,10.40
2023-04-08T07:25:08.628Z,9.80
2023-04-08T07:26:08.640Z,10.40
2023-04-08T07:27:08.602Z,10.40
2023-04-08T07:28:08.597Z,10.10
2023-04-08T07:29:08.586Z,10.20
2023-04-08T07:30:08.580Z,10.70
2023-04-08T07:31:08.652Z,10.70
2023-04-08T07:32:08.555Z,10.30
2023-04-08T07:33:08.680Z,10.60
2023-04-08T07:34:08.519Z,10.70
2023-04-08T07:35:08.521Z,10.00
2023-04-08T07:36:08.518Z,10.60
2023-04-08T07:37:08.492Z,10.60
2023-04-08T07:38:08.532Z,10.80
2023-04-08T07:39:08.470Z,10.80
2023-04-08T07:40:08.457Z,10.60
2023-04-08T07:41:08.486Z,10.60
2023-04-08T07:42:08.435Z,10.70
2023-04-08T07:43:08.425Z,11.20
2023-04-08T07:44:08.414Z,10.60
2023-04-08T07:45:08.401Z,9.90
2023-04-08T07:46:08.415Z,10.20
2023-04-08T07:47:08.373Z,10.90
2023-04-08T07:48:08.413Z,11.10
2023-04-08T07:49:08.353Z,10.60
2023-04-08T07:50:08.350Z,10.80
2023-04-08T07:51:10.893Z,11.10
2023-04-08T07:52:08.326Z,10.50
2023-04-08T07:53:08.311Z,10.90
2023-04-08T07:54:08.335Z,10.80
2023-04-08T07:55:08.282Z,10.80
2023-04-08T07:56:08.340Z,10.80
2023-04-08T07:57:08.265Z,10.90
2023-04-08T07:58:08.261Z,11.20
2023-04-08T07:59:08.234Z,10.40
2023-04-08T08:00:08.237Z,10.60
2023-04-08T08:01:08.264Z,10.00
2023-04-08T08:02:08.258Z,10.00
2023-04-08T08:03:08.317Z,10.90
2023-04-08T08:04:08.257Z,10.80
2023-04-08T08:05:08.234Z,10.40
2023-04-08T08:06:08.181Z,10.80
2023-04-08T08:07:08.148Z,11.10
2023-04-08T08:08:08.142Z,11.40
2023-04-08T08:09:08.143Z,10.50
2023-04-08T08:10:08.126Z,10.20
2023-04-08T08:11:08.129Z,11.30
2023-04-08T08:12:08.116Z,10.60
2023-04-08T08:13:08.107Z,11.20
2023-04-08T08:14:08.093Z,11.50
2023-04-08T08:15:08.066Z,11.80
2023-04-08T08:16:08.125Z,10.30
2023-04-08T08:17:08.034Z,11.10
2023-04-08T08:18:08.081Z,10.80
2023-04-08T08:19:08.011Z,10.30
2023-04-08T08:20:08.008Z,11.00
2023-04-08T08:21:08.053Z,11.20
2023-04-08T08:22:07.998Z,10.80
2023-04-08T08:23:07.983Z,11.40
2023-04-08T08:24:07.972Z,11.10
2023-04-08T08:25:07.953Z,11.40
2023-04-08T08:26:07.958Z,11.40
2023-04-08T08:27:07.939Z,11.50
2023-04-08T08:28:07.917Z,11.40
2023-04-08T08:29:07.900Z,10.50
2023-04-08T08:30:07.904Z,11.50
2023-04-08T08:31:07.949Z,11.50
2023-04-08T08:32:07.872Z,11.50
2023-04-08T08:33:08.039Z,11.20
2023-04-08T08:34:07.847Z,11.40
2023-04-08T08:35:07.843Z,11.10
2023-04-08T08:36:07.892Z,10.70
2023-04-08T08:37:07.810Z,11.20
2023-04-08T08:38:07.800Z,11.80
2023-04-08T08:39:07.793Z,11.40
2023-04-08T08:40:07.796Z,11.20
2023-04-08T08:41:07.842Z,11.40
2023-04-08T08:42:07.759Z,11.30
2023-04-08T08:43:07.752Z,11.70
2023-04-08T08:44:07.740Z,12.10
2023-04-08T08:45:07.728Z,11.40
2023-04-08T08:46:08.122Z,11.10
2023-04-08T08:47:07.708Z,11.60
2023-04-08T08:48:07.703Z,11.90
2023-04-08T08:49:07.700Z,12.00
2023-04-08T08:50:07.684Z,11.90
2023-04-08T08:51:07.648Z,12.00
2023-04-08T08:52:07.670Z,11.60
2023-04-08T08:53:07.631Z,13.00
2023-04-08T08:54:07.635Z,12.20
2023-04-08T08:55:21.481Z,12.20
2023-04-08T08:56:17.798Z,11.60
2023-04-08T08:57:07.629Z,12.40
2023-04-08T08:58:07.583Z,11.90
2023-04-08T08:59:07.591Z,12.00
2023-04-08T09:00:07.552Z,12.40
2023-04-08T09:01:07.539Z,12.00
2023-04-08T09:02:07.636Z,12.50
2023-04-08T09:03:07.712Z,12.60
2023-04-08T09:04:07.647Z,12.30
2023-04-08T09:05:07.626Z,12.90
2023-04-08T09:06:07.497Z,13.20
2023-04-08T09:07:07.486Z,12.70
2023-04-08T09:08:07.467Z,12.20
2023-04-08T09:09:07.469Z,12.90
2023-04-08T09:10:07.438Z,12.40
2023-04-08T09:11:07.456Z,12.90
2023-04-08T09:12:07.418Z,13.00
2023-04-08T09:13:07.436Z,13.00
2023-04-08T09:14:07.397Z,12.90
2023-04-08T09:15:07.384Z,14.00
2023-04-08T09:16:07.409Z,13.40
2023-04-08T09:17:07.361Z,13.00
2023-04-08T09:18:07.397Z,13.20
2023-04-08T09:19:07.342Z,13.20
2023-04-08T09:20:07.325Z,13.90
2023-04-08T09:21:07.303Z,13.20
2023-04-08T09:22:07.305Z,13.70
2023-04-08T09:23:07.283Z,13.70
2023-04-08T09:24:07.301Z,12.80
2023-04-08T09:25:07.259Z,13.30
2023-04-08T09:26:07.255Z,13.70
2023-04-08T09:27:07.244Z,14.60
2023-04-08T09:28:07.242Z,14.60
2023-04-08T09:29:24.140Z,14.20
2023-04-08T09:30:07.264Z,14.30
2023-04-08T09:31:07.195Z,14.50
2023-04-08T09:32:07.245Z,15.00
2023-04-08T09:33:07.363Z,14.60
2023-04-08T09:34:07.172Z,14.50
2023-04-08T09:35:07.162Z,15.60
2023-04-08T09:36:07.225Z,14.30
2023-04-08T09:37:07.303Z,14.30
2023-04-08T09:38:07.129Z,13.90
2023-04-08T09:39:07.113Z,14.40
2023-04-08T09:40:07.100Z,14.30
2023-04-08T09:41:07.110Z,13.80
2023-04-08T09:42:07.100Z,14.20
2023-04-08T09:43:07.085Z,14.20
2023-04-08T09:44:07.083Z,13.90
2023-04-08T09:45:07.049Z,14.50
2023-04-08T09:46:07.073Z,14.20
2023-04-08T09:47:07.049Z,14.40
2023-04-08T09:48:07.069Z,13.90
2023-04-08T09:49:07.010Z,14.40
2023-04-08T09:50:06.983Z,13.90
2023-04-08T09:51:06.978Z,13.90
2023-04-08T09:52:06.972Z,13.70
2023-04-08T09:53:06.984Z,13.10
2023-04-08T09:54:06.943Z,13.70
2023-04-08T09:55:06.945Z,12.40
2023-04-08T09:56:06.954Z,12.90
2023-04-08T09:57:06.917Z,13.30
2023-04-08T09:58:06.927Z,12.60
2023-04-08T09:59:06.966Z,13.10
2023-04-08T10:00:06.894Z,12.10
2023-04-08T10:01:06.921Z,12.40
2023-04-08T10:02:07.021Z,12.80
2023-04-08T10:03:07.121Z,13.10
2023-04-08T10:04:06.904Z,13.20
2023-04-08T10:05:08.273Z,12.80
2023-04-08T10:06:06.810Z,13.10
2023-04-08T10:07:06.793Z,13.40
2023-04-08T10:08:06.788Z,13.00
2023-04-08T10:09:06.773Z,12.90
2023-04-08T10:10:06.803Z,13.40
2023-04-08T10:11:06.765Z,13.10
2023-04-08T10:12:06.747Z,13.70
2023-04-08T10:13:06.764Z,13.20
2023-04-08T10:14:06.749Z,13.70
2023-04-08T10:15:06.738Z,13.60
2023-04-08T10:16:07.619Z,14.20
2023-04-08T10:17:06.879Z,13.70
2023-04-08T10:18:06.713Z,13.30
2023-04-08T10:19:06.673Z,13.60
2023-04-08T10:20:06.668Z,13.70
2023-04-08T10:21:06.662Z,13.50
2023-04-08T10:22:07.958Z,14.00
2023-04-08T10:23:06.628Z,13.60
2023-04-08T10:24:06.632Z,13.50
2023-04-08T10:25:06.601Z,13.90
2023-04-08T10:26:06.616Z,14.10
2023-04-08T10:27:06.599Z,13.60
2023-04-08T10:28:07.555Z,13.70
2023-04-08T10:29:06.540Z,14.00
2023-04-08T10:30:06.538Z,14.60
2023-04-08T10:31:06.522Z,13.80
2023-04-08T10:32:06.601Z,13.70
2023-04-08T10:33:06.581Z,14.00
2023-04-08T10:34:06.504Z,14.10
2023-04-08T10:35:06.469Z,13.70
2023-04-08T10:36:06.531Z,13.10
2023-04-08T10:37:06.533Z,13.20
2023-04-08T10:38:06.441Z,13.70
2023-04-08T10:39:06.440Z,13.90
2023-04-08T10:40:06.419Z,14.00
2023-04-08T10:41:06.405Z,13.50
2023-04-08T10:42:06.423Z,13.30
2023-04-08T10:43:06.385Z,14.20
2023-04-08T10:44:06.367Z,13.80
2023-04-08T10:45:06.372Z,13.60
2023-04-08T10:46:06.390Z,13.30
2023-04-08T10:47:06.357Z,13.70
2023-04-08T10:48:06.318Z,13.90
2023-04-08T10:49:06.310Z,13.70
2023-04-08T10:50:06.303Z,14.50
2023-04-08T10:51:06.325Z,13.80
2023-04-08T10:52:06.298Z,13.90
2023-04-08T10:53:06.266Z,13.80
2023-04-08T10:54:06.248Z,14.40
2023-04-08T10:55:06.248Z,13.50
2023-04-08T10:56:06.268Z,13.80
2023-04-08T10:57:06.238Z,14.00
2023-04-08T10:58:06.203Z,13.40
2023-04-08T10:59:06.199Z,13.50
2023-04-08T11:00:06.199Z,13.70
2023-04-08T11:01:06.232Z,13.40
2023-04-08T11:02:06.265Z,13.80
2023-04-08T11:03:06.288Z,13.70
2023-04-08T11:04:06.311Z,13.80
2023-04-08T11:05:06.132Z,13.70
2023-04-08T11:06:06.124Z,13.50
2023-04-08T11:07:06.127Z,13.80
2023-04-08T11:08:06.100Z,13.00
2023-04-08T11:09:06.087Z,13.60
2023-04-08T11:10:06.081Z,13.80
2023-04-08T11:11:06.070Z,13.60
2023-04-08T11:12:06.062Z,13.70
2023-04-08T11:13:06.037Z,12.90
2023-04-08T11:14:06.036Z,13.80
2023-04-08T11:15:06.043Z,14.20
2023-04-08T11:16:16.966Z,13.80
2023-04-08T11:17:06.048Z,13.30
2023-04-08T11:18:06.024Z,13.00
2023-04-08T11:19:05.999Z,14.10
2023-04-08T11:20:05.967Z,14.00
2023-04-08T11:21:05.977Z,13.90
2023-04-08T11:22:05.963Z,13.70
2023-04-08T11:23:05.937Z,13.20
2023-04-08T11:24:05.913Z,14.20
2023-04-08T11:25:05.912Z,13.30
2023-04-08T11:26:06.400Z,13.90
2023-04-08T11:27:05.913Z,13.80
2023-04-08T11:28:05.875Z,13.70
2023-04-08T11:29:05.877Z,13.60
2023-04-08T11:30:05.851Z,12.90
2023-04-08T11:31:06.054Z,13.80
2023-04-08T11:32:05.827Z,13.80
2023-04-08T11:33:05.858Z,13.50
2023-04-08T11:34:05.799Z,13.70
2023-04-08T11:35:05.800Z,13.80
2023-04-08T11:36:05.876Z,13.30
2023-04-08T11:37:05.769Z,13.40
2023-04-08T11:38:05.797Z,13.40
2023-04-08T11:39:05.746Z,13.70
2023-04-08T11:40:05.746Z,12.70
2023-04-08T11:41:05.724Z,12.90
2023-04-08T11:42:05.707Z,12.80
2023-04-08T11:43:05.699Z,13.70
2023-04-08T11:44:05.706Z,13.50
2023-04-08T11:45:05.677Z,13.30
2023-04-08T11:46:05.681Z,13.70
2023-04-08T11:47:05.661Z,13.80
2023-04-08T11:48:05.670Z,13.40
2023-04-08T11:49:05.840Z,13.60
2023-04-08T11:50:05.629Z,13.80
2023-04-08T11:51:05.608Z,13.50
2023-04-08T11:52:05.591Z,14.30
2023-04-08T11:53:05.586Z,13.40
2023-04-08T11:54:05.573Z,13.20
2023-04-08T11:55:05.582Z,13.30
2023-04-08T11:56:05.554Z,13.10
2023-04-08T11:57:05.550Z,13.50
2023-04-08T11:58:05.530Z,14.10
2023-04-08T11:59:05.525Z,13.10
2023-04-08T12:00:05.530Z,13.00
2023-04-08T12:01:05.496Z,12.90
2023-04-08T12:02:05.524Z,12.60
2023-04-08T12:03:05.542Z,12.90
2023-04-08T12:04:05.524Z,13.30
2023-04-08T12:05:05.511Z,12.90
2023-04-08T12:06:05.460Z,13.10
2023-04-08T12:07:05.440Z,13.40
2023-04-08T12:08:05.433Z,13.00
2023-04-08T12:09:05.414Z,12.60
2023-04-08T12:10:05.409Z,13.10
2023-04-08T12:11:18.651Z,12.90
2023-04-08T12:12:05.407Z,12.80
2023-04-08T12:13:05.363Z,13.00
2023-04-08T12:14:05.349Z,13.00
2023-04-08T12:15:05.347Z,13.30
2023-04-08T12:16:05.354Z,13.60
2023-04-08T12:17:05.313Z,14.20
2023-04-08T12:18:05.380Z,13.00
2023-04-08T12:19:05.301Z,13.00
2023-04-08T12:20:05.285Z,13.10
2023-04-08T12:21:05.271Z,13.30
2023-04-08T12:22:05.255Z,13.70
2023-04-08T12:23:05.287Z,13.70
2023-04-08T12:24:05.236Z,13.50
2023-04-08T12:25:05.232Z,13.80
2023-04-08T12:26:05.221Z,12.80
2023-04-08T12:27:05.241Z,13.70
2023-04-08T12:28:05.188Z,13.60
2023-04-08T12:29:05.209Z,13.20
2023-04-08T12:30:05.176Z,13.60
2023-04-08T12:31:05.185Z,14.80
2023-04-08T12:32:05.147Z,14.90
2023-04-08T12:33:05.179Z,13.60
2023-04-08T12:34:05.129Z,14.20
2023-04-08T12:35:05.143Z,13.40
2023-04-08T12:36:05.122Z,13.50
2023-04-08T12:37:05.098Z,14.70
2023-04-08T12:38:05.080Z,15.00
2023-04-08T12:39:05.111Z,14.40
2023-04-08T12:40:05.061Z,15.30
2023-04-08T12:41:05.051Z,14.40
2023-04-08T12:42:05.035Z,14.40
2023-04-08T12:43:05.054Z,14.30
2023-04-08T12:44:05.026Z,14.70
2023-04-08T12:45:05.016Z,14.60
2023-04-08T12:46:04.991Z,14.70
2023-04-08T12:47:04.998Z,14.90
2023-04-08T12:48:05.002Z,15.50
2023-04-08T12:49:05.739Z,15.90
2023-04-08T12:50:04.968Z,16.10
2023-04-08T12:51:04.938Z,15.70
2023-04-08T12:52:04.918Z,14.70
2023-04-08T12:53:04.922Z,15.10
2023-04-08T12:54:05.282Z,15.80
2023-04-08T12:55:04.899Z,16.30
2023-04-08T12:56:04.892Z,14.70